createdAt,value
2022-08-26T00:01:55.887Z,4.05
2022-08-26T00:04:25.611Z,3.60
2022-08-26T00:06:54.627Z,6.53
2022-08-26T00:09:23.327Z,3.90
2022-08-26T00:11:52.423Z,4.57
2022-08-26T00:14:19.692Z,4.03
2022-08-26T00:16:47.929Z,4.15
2022-08-26T00:19:18.093Z,4.05
2022-08-26T00:21:48.758Z,3.75
2022-08-26T00:24:18.051Z,4.32
2022-08-26T00:26:45.465Z,3.50
2022-08-26T00:29:13.665Z,3.97
2022-08-26T00:31:42.262Z,4.05
2022-08-26T00:34:11.348Z,3.80
2022-08-26T00:36:40.763Z,4.25
2022-08-26T00:39:08.777Z,4.03
2022-08-26T00:41:38.855Z,4.05
2022-08-26T00:44:07.602Z,3.88
2022-08-26T00:46:45.010Z,3.95
2022-08-26T00:49:22.009Z,3.83
2022-08-26T00:51:55.801Z,3.58
2022-08-26T00:54:26.938Z,3.90
2022-08-26T00:57:00.990Z,4.10
2022-08-26T00:59:32.769Z,4.15
2022-08-26T01:02:01.049Z,3.85
2022-08-26T01:04:33.667Z,3.83
2022-08-26T01:07:00.927Z,3.50
2022-08-26T01:09:28.619Z,4.00
2022-08-26T01:11:59.333Z,3.53
2022-08-26T01:14:32.839Z,3.90
2022-08-26T01:17:03.227Z,4.00
2022-08-26T01:19:44.923Z,4.40
2022-08-26T01:22:19.646Z,4.10
2022-08-26T01:24:49.175Z,3.42
2022-08-26T01:27:19.704Z,5.28
2022-08-26T01:29:49.457Z,3.92
2022-08-26T01:32:20.191Z,4.13
2022-08-26T01:34:48.581Z,3.50
2022-08-26T01:37:21.828Z,4.55
2022-08-26T01:39:53.955Z,3.83
2022-08-26T01:42:24.581Z,4.22
2022-08-26T01:47:23.679Z,4.00
2022-08-26T01:49:54.647Z,4.32
2022-08-26T01:52:28.134Z,4.57
2022-08-26T01:54:57.711Z,3.60
2022-08-26T01:57:26.156Z,3.97
2022-08-26T01:59:57.676Z,4.35
2022-08-26T02:02:25.637Z,3.63
2022-08-26T02:05:04.530Z,3.75
2022-08-26T02:07:33.254Z,3.78
2022-08-26T02:10:00.742Z,3.80
2022-08-26T02:12:28.119Z,3.67
2022-08-26T02:15:00.681Z,3.67
2022-08-26T02:17:37.663Z,3.80
2022-08-26T02:20:07.083Z,4.35
2022-08-26T02:22:41.913Z,3.53
2022-08-26T02:25:31.393Z,3.65
2022-08-26T02:27:58.891Z,4.75
2022-08-26T02:30:32.249Z,4.00
2022-08-26T02:33:03.790Z,3.40
2022-08-26T02:35:32.457Z,3.58
2022-08-26T02:38:00.725Z,3.35
2022-08-26T02:40:31.591Z,3.65
2022-08-26T02:42:59.143Z,3.83
2022-08-26T02:45:29.114Z,3.78
2022-08-26T02:47:58.736Z,5.07
2022-08-26T02:50:27.502Z,4.47
2022-08-26T02:52:54.885Z,3.50
2022-08-26T02:55:22.172Z,4.85
2022-08-26T02:57:52.595Z,4.05
2022-08-26T03:00:20.511Z,4.10
2022-08-26T03:02:47.678Z,3.92
2022-08-26T03:05:18.091Z,3.50
2022-08-26T03:07:45.516Z,3.97
2022-08-26T03:10:13.459Z,3.90
2022-08-26T03:12:42.376Z,3.93
2022-08-26T03:15:17.454Z,3.70
2022-08-26T03:17:50.345Z,4.80
2022-08-26T03:20:18.258Z,4.30
2022-08-26T03:22:46.055Z,3.88
2022-08-26T03:25:15.642Z,3.58
2022-08-26T03:27:43.232Z,4.05
2022-08-26T03:30:32.457Z,4.10
2022-08-26T03:33:01.074Z,3.97
2022-08-26T03:35:28.754Z,3.78
2022-08-26T03:37:56.085Z,3.58
2022-08-26T03:40:23.600Z,3.83
2022-08-26T03:42:51.543Z,3.30
2022-08-26T03:45:21.047Z,3.75
2022-08-26T03:47:48.668Z,3.78
2022-08-26T03:50:22.588Z,3.80
2022-08-26T03:52:51.791Z,4.15
2022-08-26T03:55:19.639Z,3.30
2022-08-26T03:57:51.404Z,4.40
2022-08-26T04:00:19.466Z,4.25
2022-08-26T04:02:48.970Z,4.47
2022-08-26T04:05:18.744Z,3.63
2022-08-26T04:07:47.474Z,4.85
2022-08-26T04:10:19.423Z,4.00
2022-08-26T04:12:47.931Z,4.35
2022-08-26T04:15:16.515Z,4.10
2022-08-26T04:17:45.447Z,5.03
2022-08-26T04:20:16.243Z,4.00
2022-08-26T04:22:43.630Z,4.63
2022-08-26T04:25:12.373Z,4.07
2022-08-26T04:27:40.290Z,5.25
2022-08-26T04:30:09.667Z,4.60
2022-08-26T04:32:37.530Z,4.88
2022-08-26T04:35:06.187Z,5.30
2022-08-26T04:37:33.747Z,4.38
2022-08-26T04:40:01.070Z,8.07
2022-08-26T04:42:29.512Z,9.35
2022-08-26T04:44:56.709Z,6.20
2022-08-26T04:47:28.064Z,7.20
2022-08-26T04:49:59.032Z,5.22
2022-08-26T04:52:26.693Z,5.85
2022-08-26T04:54:55.354Z,9.73
2022-08-26T04:57:23.487Z,8.52
2022-08-26T04:59:50.622Z,4.97
2022-08-26T05:02:18.294Z,15.70
2022-08-26T05:04:46.129Z,9.73
2022-08-26T05:07:13.251Z,6.97
2022-08-26T05:09:41.077Z,8.50
2022-08-26T05:12:09.831Z,5.05
2022-08-26T05:14:37.047Z,6.65
2022-08-26T05:17:04.701Z,5.47
2022-08-26T05:19:32.744Z,7.95
2022-08-26T05:21:59.966Z,5.28
2022-08-26T05:24:27.705Z,6.97
2022-08-26T05:26:56.530Z,6.97
2022-08-26T05:29:24.362Z,8.65
2022-08-26T05:31:52.921Z,7.35
2022-08-26T05:34:23.287Z,5.85
2022-08-26T05:36:53.264Z,6.90
2022-08-26T05:39:23.610Z,5.95
2022-08-26T05:41:51.257Z,8.55
2022-08-26T05:44:20.359Z,9.60
2022-08-26T05:46:49.698Z,13.68
2022-08-26T05:49:18.841Z,5.95
2022-08-26T05:51:47.855Z,13.73
2022-08-26T05:54:21.942Z,8.05
2022-08-26T05:56:50.315Z,11.00
2022-08-26T05:59:17.585Z,7.10
2022-08-26T06:01:52.038Z,8.48
2022-08-26T06:04:20.044Z,10.57
2022-08-26T06:06:49.958Z,12.93
2022-08-26T06:09:18.298Z,14.53
2022-08-26T06:11:45.695Z,12.57
2022-08-26T06:14:12.999Z,11.40
2022-08-26T06:16:45.303Z,9.50
2022-08-26T06:19:15.672Z,8.77
2022-08-26T06:21:46.888Z,7.32
2022-08-26T06:24:38.941Z,8.30
2022-08-26T06:27:11.406Z,10.25
2022-08-26T06:29:39.039Z,7.70
2022-08-26T06:32:06.975Z,8.90
2022-08-26T06:34:36.895Z,10.93
2022-08-26T06:37:06.515Z,9.45
2022-08-26T06:39:33.995Z,13.38
2022-08-26T06:42:03.059Z,7.18
2022-08-26T06:44:30.876Z,8.02
2022-08-26T06:46:59.614Z,9.63
2022-08-26T06:49:27.734Z,8.60
2022-08-26T06:51:59.000Z,9.82
2022-08-26T06:54:27.483Z,7.68
2022-08-26T06:56:57.025Z,7.47
2022-08-26T06:59:25.279Z,9.15
2022-08-26T07:01:52.605Z,9.60
2022-08-26T07:04:22.294Z,10.88
2022-08-26T07:06:53.574Z,10.57
2022-08-26T07:09:23.505Z,8.85
2022-08-26T07:11:51.998Z,11.67
2022-08-26T07:14:21.357Z,13.40
2022-08-26T07:16:49.931Z,9.98
2022-08-26T07:19:30.971Z,10.75
2022-08-26T07:22:02.170Z,8.63
2022-08-26T07:24:31.319Z,9.35
2022-08-26T07:27:02.779Z,12.13
2022-08-26T07:29:31.264Z,9.88
2022-08-26T07:31:59.927Z,7.82
2022-08-26T07:34:27.703Z,10.52
2022-08-26T07:36:57.149Z,7.38
2022-08-26T07:39:27.476Z,11.00
2022-08-26T07:41:54.702Z,11.23
2022-08-26T07:44:22.210Z,11.68
2022-08-26T07:46:53.164Z,10.63
2022-08-26T07:49:22.415Z,10.13
2022-08-26T07:51:50.636Z,15.68
2022-08-26T07:54:18.839Z,6.78
2022-08-26T07:56:47.710Z,8.43
2022-08-26T07:59:17.981Z,10.75
2022-08-26T08:01:46.417Z,7.95
2022-08-26T08:04:15.108Z,9.35
2022-08-26T08:06:43.895Z,8.68
2022-08-26T08:09:13.254Z,8.60
2022-08-26T08:11:40.669Z,8.27
2022-08-26T08:14:08.795Z,10.27
2022-08-26T08:16:41.908Z,16.17
2022-08-26T08:19:13.865Z,9.00
2022-08-26T08:21:41.979Z,12.98
2022-08-26T08:24:11.154Z,9.05
2022-08-26T08:26:38.559Z,10.82
2022-08-26T08:29:08.138Z,11.55
2022-08-26T08:34:23.888Z,9.57
2022-08-26T08:36:53.763Z,11.57
2022-08-26T08:39:22.520Z,10.73
2022-08-26T08:42:29.405Z,7.28
2022-08-26T08:44:58.874Z,9.88
2022-08-26T08:47:39.021Z,9.02
2022-08-26T08:50:21.738Z,9.13
2022-08-26T08:53:29.173Z,11.40
2022-08-26T08:56:23.985Z,11.05
2022-08-26T08:59:14.379Z,13.05
2022-08-26T09:02:04.924Z,9.00
2022-08-26T09:05:14.953Z,9.27
2022-08-26T09:08:06.636Z,8.18
2022-08-26T09:10:44.525Z,11.82
2022-08-26T09:13:16.876Z,12.75
2022-08-26T09:16:15.986Z,8.32
2022-08-26T09:19:08.590Z,13.10
2022-08-26T09:21:36.069Z,12.32
2022-08-26T09:24:04.062Z,14.15
2022-08-26T09:26:47.509Z,10.05
2022-08-26T09:29:22.475Z,11.45
2022-08-26T09:31:50.255Z,14.02
2022-08-26T09:34:24.940Z,12.45
2022-08-26T09:36:57.804Z,12.43
2022-08-26T09:39:29.306Z,16.08
2022-08-26T09:42:20.599Z,12.88
2022-08-26T09:45:06.673Z,11.85
2022-08-26T09:47:55.043Z,9.35
2022-08-26T09:50:38.901Z,13.00
2022-08-26T09:53:30.697Z,14.82
2022-08-26T09:56:27.524Z,11.30
2022-08-26T09:58:57.152Z,8.52
2022-08-26T10:01:35.529Z,7.60
2022-08-26T10:04:20.650Z,12.82
2022-08-26T10:07:01.429Z,7.93
2022-08-26T10:09:34.001Z,10.20
2022-08-26T10:12:07.411Z,12.75
2022-08-26T10:14:48.896Z,11.63
2022-08-26T10:17:29.152Z,9.80
2022-08-26T10:20:15.789Z,13.73
2022-08-26T10:23:09.329Z,9.15
2022-08-26T10:26:00.975Z,9.65
2022-08-26T10:28:48.505Z,15.93
2022-08-26T10:31:40.100Z,8.35
2022-08-26T10:34:09.013Z,12.45
2022-08-26T10:37:16.254Z,10.32
2022-08-26T10:40:02.813Z,8.68
2022-08-26T10:42:37.456Z,11.77
2022-08-26T10:45:20.443Z,14.90
2022-08-26T10:48:03.619Z,13.23
2022-08-26T10:50:36.111Z,11.75
2022-08-26T10:53:32.670Z,9.63
2022-08-26T10:56:28.643Z,6.50
2022-08-26T10:59:24.336Z,10.88
2022-08-26T11:02:26.909Z,10.38
2022-08-26T11:05:03.560Z,11.07
2022-08-26T11:07:44.460Z,9.07
2022-08-26T11:10:51.515Z,10.90
2022-08-26T11:13:19.843Z,21.33
2022-08-26T11:15:58.821Z,14.48
2022-08-26T11:18:41.947Z,10.60
2022-08-26T11:21:44.560Z,12.82
2022-08-26T11:24:41.896Z,17.75
2022-08-26T11:27:30.069Z,9.80
2022-08-26T11:30:02.771Z,13.57
2022-08-26T11:32:51.729Z,12.98
2022-08-26T11:35:47.003Z,6.43
2022-08-26T11:38:31.033Z,16.45
2022-08-26T11:41:09.108Z,16.48
2022-08-26T11:43:38.234Z,15.95
2022-08-26T11:46:10.685Z,12.23
2022-08-26T11:48:43.508Z,11.43
2022-08-26T11:51:23.238Z,14.45
2022-08-26T11:53:51.215Z,13.93
2022-08-26T11:56:28.886Z,10.65
2022-08-26T12:01:35.860Z,15.73
2022-08-26T12:04:10.915Z,15.52
2022-08-26T12:06:45.748Z,7.22
2022-08-26T12:09:29.107Z,9.07
2022-08-26T12:12:16.780Z,11.88
2022-08-26T12:14:44.909Z,12.05
2022-08-26T12:17:16.092Z,14.15
2022-08-26T12:19:44.267Z,10.80
2022-08-26T12:22:32.637Z,10.45
2022-08-26T12:25:03.055Z,9.05
2022-08-26T12:30:14.330Z,14.30
2022-08-26T12:32:58.056Z,10.07
2022-08-26T12:35:29.446Z,6.97
2022-08-26T12:40:46.659Z,6.05
2022-08-26T12:43:35.646Z,8.68
2022-08-26T12:46:06.604Z,11.13
2022-08-26T12:48:36.673Z,13.32
2022-08-26T12:51:06.238Z,5.55
2022-08-26T12:53:35.541Z,13.68
2022-08-26T12:56:18.434Z,13.15
2022-08-26T12:59:00.030Z,10.70
2022-08-26T13:01:27.344Z,11.70
2022-08-26T13:03:54.673Z,7.43
2022-08-26T13:06:34.279Z,12.77
2022-08-26T13:09:29.999Z,9.93
2022-08-26T13:11:58.834Z,11.35
2022-08-26T13:14:26.027Z,9.63
2022-08-26T13:16:53.740Z,10.15
2022-08-26T13:19:25.556Z,9.48
2022-08-26T13:21:55.778Z,5.57
2022-08-26T13:24:42.380Z,10.27
2022-08-26T13:27:12.287Z,12.98
2022-08-26T13:29:39.807Z,4.00
2022-08-26T13:32:09.166Z,7.53
2022-08-26T13:34:37.700Z,7.53
2022-08-26T13:37:05.392Z,8.38
2022-08-26T13:39:33.207Z,8.63
2022-08-26T13:42:00.522Z,7.60
2022-08-26T13:44:27.979Z,8.95
2022-08-26T13:46:55.221Z,4.53
2022-08-26T13:49:22.849Z,7.88
2022-08-26T13:51:49.960Z,11.65
2022-08-26T13:54:17.132Z,8.20
2022-08-26T13:56:44.215Z,9.85
2022-08-26T13:59:11.378Z,6.63
2022-08-26T14:01:40.205Z,4.82
2022-08-26T14:04:08.566Z,7.80
2022-08-26T14:06:35.878Z,11.10
2022-08-26T14:09:03.452Z,6.60
2022-08-26T14:11:39.072Z,8.35
2022-08-26T14:14:17.720Z,9.68
2022-08-26T14:16:58.956Z,6.88
2022-08-26T14:19:30.145Z,7.32
2022-08-26T14:21:57.521Z,6.75
2022-08-26T14:24:24.700Z,7.82
2022-08-26T14:26:51.882Z,9.93
2022-08-26T14:29:19.064Z,7.05
2022-08-26T14:31:46.351Z,10.02
2022-08-26T14:34:14.638Z,11.00
2022-08-26T14:36:41.859Z,4.82
2022-08-26T14:39:12.127Z,6.00
2022-08-26T14:41:45.402Z,13.15
2022-08-26T14:44:24.892Z,7.90
2022-08-26T14:46:53.435Z,11.93
2022-08-26T14:49:22.681Z,9.07
2022-08-26T14:51:50.434Z,8.38
2022-08-26T14:54:19.962Z,6.10
2022-08-26T14:56:54.167Z,8.15
2022-08-26T14:59:24.165Z,8.95
2022-08-26T15:01:52.204Z,9.23
2022-08-26T15:04:19.989Z,12.13
2022-08-26T15:06:47.569Z,9.95
2022-08-26T15:09:15.937Z,7.85
2022-08-26T15:11:43.363Z,8.43
2022-08-26T15:14:14.801Z,9.02
2022-08-26T15:16:51.835Z,8.93
2022-08-26T15:19:19.875Z,7.38
2022-08-26T15:21:47.882Z,9.57
2022-08-26T15:24:17.309Z,6.35
2022-08-26T15:26:44.802Z,13.30
2022-08-26T15:29:12.021Z,6.15
2022-08-26T15:31:39.399Z,6.55
2022-08-26T15:34:14.566Z,9.63
2022-08-26T15:36:45.017Z,7.38
2022-08-26T15:39:13.159Z,7.45
2022-08-26T15:41:41.257Z,6.35
2022-08-26T15:44:09.413Z,9.88
2022-08-26T15:46:38.558Z,11.93
2022-08-26T15:49:07.161Z,12.37
2022-08-26T15:51:45.754Z,5.35
2022-08-26T15:54:14.184Z,8.35
2022-08-26T15:56:41.376Z,13.25
2022-08-26T15:59:11.805Z,8.23
2022-08-26T16:01:39.196Z,7.63
2022-08-26T16:04:06.803Z,6.53
2022-08-26T16:06:36.762Z,5.78
2022-08-26T16:09:05.016Z,4.88
2022-08-26T16:11:32.106Z,5.82
2022-08-26T16:13:59.260Z,6.35
2022-08-26T16:16:27.030Z,6.60
2022-08-26T16:18:54.165Z,4.47
2022-08-26T16:21:27.914Z,3.95
2022-08-26T16:23:59.417Z,3.50
2022-08-26T16:26:29.343Z,5.55
2022-08-26T16:28:56.872Z,5.70
2022-08-26T16:31:24.298Z,5.53
2022-08-26T16:33:51.617Z,3.63
2022-08-26T16:36:19.940Z,6.20
2022-08-26T16:38:56.569Z,5.93
2022-08-26T16:41:26.295Z,6.93
2022-08-26T16:43:54.671Z,7.15
2022-08-26T16:46:25.759Z,7.95
2022-08-26T16:48:58.160Z,8.05
2022-08-26T16:51:27.790Z,6.05
2022-08-26T16:53:57.006Z,3.78
2022-08-26T16:56:33.387Z,6.10
2022-08-26T16:59:06.123Z,4.93
2022-08-26T17:01:33.374Z,4.95
2022-08-26T17:04:00.603Z,5.18
2022-08-26T17:06:27.723Z,3.53
2022-08-26T17:08:54.831Z,6.75
2022-08-26T17:11:21.964Z,5.07
2022-08-26T17:13:49.114Z,3.75
2022-08-26T17:16:16.404Z,4.13
2022-08-26T17:18:43.728Z,9.88
2022-08-26T17:21:13.175Z,5.55
2022-08-26T17:23:41.609Z,3.75
2022-08-26T17:26:09.286Z,5.25
2022-08-26T17:28:36.611Z,4.95
2022-08-26T17:31:05.218Z,4.35
2022-08-26T17:33:33.006Z,4.90
2022-08-26T17:36:00.852Z,4.45
2022-08-26T17:38:29.354Z,5.72
2022-08-26T17:40:57.799Z,8.15
2022-08-26T17:43:26.906Z,4.05
2022-08-26T17:46:07.082Z,4.55
2022-08-26T17:48:35.935Z,5.35
2022-08-26T17:51:11.261Z,2.50
2022-08-26T17:53:38.928Z,2.90
2022-08-26T17:56:09.007Z,2.75
2022-08-26T17:58:39.060Z,4.72
2022-08-26T18:01:07.029Z,6.15
2022-08-26T18:03:35.315Z,7.32
2022-08-26T18:06:04.209Z,3.25
2022-08-26T18:08:31.352Z,3.75
2022-08-26T18:10:59.212Z,3.85
2022-08-26T18:13:26.405Z,5.90
2022-08-26T18:15:53.528Z,5.53
2022-08-26T18:18:20.733Z,4.80
2022-08-26T18:20:51.963Z,5.78
2022-08-26T18:23:29.004Z,3.78
2022-08-26T18:25:58.702Z,5.20
2022-08-26T18:28:25.842Z,3.03
2022-08-26T18:30:53.036Z,5.40
2022-08-26T18:33:25.152Z,3.78
2022-08-26T18:35:52.935Z,7.57
2022-08-26T18:38:20.064Z,3.33
2022-08-26T18:40:49.659Z,3.03
2022-08-26T18:43:17.125Z,3.28
2022-08-26T18:45:44.273Z,4.90
2022-08-26T18:48:11.780Z,3.55
2022-08-26T18:50:42.343Z,4.07
2022-08-26T18:53:10.947Z,4.25
2022-08-26T18:55:38.116Z,3.40
2022-08-26T18:58:05.245Z,3.47
2022-08-26T19:00:32.460Z,3.00
2022-08-26T19:02:59.785Z,5.82
2022-08-26T19:05:27.904Z,7.10
2022-08-26T19:07:56.922Z,4.88
2022-08-26T19:10:25.014Z,4.32
2022-08-26T19:12:53.763Z,3.25
2022-08-26T19:15:22.594Z,4.82
2022-08-26T19:17:49.740Z,4.38
2022-08-26T19:20:17.003Z,2.42
2022-08-26T19:22:46.110Z,4.05
2022-08-26T19:25:13.752Z,5.05
2022-08-26T19:27:41.529Z,6.47
2022-08-26T19:30:10.011Z,4.78
2022-08-26T19:32:37.102Z,2.97
2022-08-26T19:35:04.443Z,6.10
2022-08-26T19:37:31.633Z,2.85
2022-08-26T19:39:58.820Z,5.72
2022-08-26T19:42:26.153Z,3.03
2022-08-26T19:45:18.262Z,3.47
2022-08-26T19:47:53.100Z,3.42
2022-08-26T19:50:21.708Z,2.35
2022-08-26T19:52:48.928Z,2.65
2022-08-26T19:55:17.784Z,2.60
2022-08-26T19:57:45.404Z,3.33
2022-08-26T20:00:24.169Z,2.90
2022-08-26T20:02:52.146Z,4.60
2022-08-26T20:05:22.162Z,5.38
2022-08-26T20:07:51.319Z,3.55
2022-08-26T20:10:21.661Z,2.67
2022-08-26T20:12:52.000Z,2.55
2022-08-26T20:15:21.964Z,2.30
2022-08-26T20:17:49.900Z,2.75
2022-08-26T20:20:37.143Z,2.58
2022-08-26T20:23:05.328Z,5.55
2022-08-26T20:25:33.561Z,4.10
2022-08-26T20:28:01.020Z,2.67
2022-08-26T20:30:28.361Z,2.28
2022-08-26T20:32:55.812Z,2.45
2022-08-26T20:35:23.974Z,3.42
2022-08-26T20:37:51.196Z,4.15
2022-08-26T20:40:18.452Z,2.67
2022-08-26T20:42:45.647Z,2.70
2022-08-26T20:45:12.866Z,5.07
2022-08-26T20:47:40.072Z,2.58
2022-08-26T20:50:08.734Z,3.20
2022-08-26T20:52:35.845Z,2.97
2022-08-26T20:55:02.985Z,3.08
2022-08-26T20:57:30.256Z,2.17
2022-08-26T20:59:57.452Z,2.92
2022-08-26T21:02:24.649Z,4.53
2022-08-26T21:04:51.855Z,2.30
2022-08-26T21:07:20.914Z,3.65
2022-08-26T21:09:49.531Z,2.53
2022-08-26T21:12:18.880Z,2.45
2022-08-26T21:14:49.549Z,2.25
2022-08-26T21:17:16.935Z,3.58
2022-08-26T21:19:44.541Z,3.58
2022-08-26T21:22:12.455Z,3.78
2022-08-26T21:24:39.625Z,1.90
2022-08-26T21:27:06.734Z,3.40
2022-08-26T21:29:34.004Z,2.40
2022-08-26T21:32:01.255Z,2.63
2022-08-26T21:34:28.788Z,4.95
2022-08-26T21:36:56.008Z,2.30
2022-08-26T21:39:23.207Z,4.70
2022-08-26T21:41:50.339Z,2.88
2022-08-26T21:44:18.287Z,3.35
2022-08-26T21:46:46.705Z,2.35
2022-08-26T21:49:16.045Z,2.60
2022-08-26T21:51:46.158Z,2.92
2022-08-26T21:56:45.289Z,3.45
2022-08-26T21:59:14.255Z,2.45
2022-08-26T22:01:41.655Z,3.38
2022-08-26T22:04:10.000Z,3.38
2022-08-26T22:06:44.352Z,3.70
2022-08-26T22:09:13.179Z,2.33
2022-08-26T22:11:40.677Z,2.70
2022-08-26T22:14:08.223Z,2.58
2022-08-26T22:16:35.447Z,2.85
2022-08-26T22:19:03.907Z,2.40
2022-08-26T22:21:31.087Z,2.67
2022-08-26T22:23:58.767Z,2.17
2022-08-26T22:26:30.236Z,2.10
2022-08-26T22:28:59.491Z,2.08
2022-08-26T22:31:37.025Z,3.33
2022-08-26T22:34:08.153Z,2.35
2022-08-26T22:36:36.184Z,1.92
2022-08-26T22:39:10.558Z,2.67
2022-08-26T22:41:37.818Z,3.08
2022-08-26T22:44:05.192Z,1.92
2022-08-26T22:46:35.029Z,2.47
2022-08-26T22:49:04.665Z,2.75
2022-08-26T22:51:32.260Z,2.50
2022-08-26T22:53:59.511Z,3.05
2022-08-26T22:56:26.956Z,5.82
2022-08-26T22:58:54.197Z,2.30
2022-08-26T23:01:21.447Z,2.45
2022-08-26T23:03:48.629Z,2.78
2022-08-26T23:06:15.809Z,3.70
2022-08-26T23:08:45.391Z,3.25
2022-08-26T23:11:13.612Z,3.10
2022-08-26T23:13:41.159Z,3.22
2022-08-26T23:16:11.230Z,5.00
2022-08-26T23:21:06.355Z,2.33
2022-08-26T23:23:33.528Z,2.65
2022-08-26T23:26:04.361Z,3.15
2022-08-26T23:28:32.774Z,3.53
2022-08-26T23:31:00.333Z,3.33
2022-08-26T23:33:47.603Z,3.42
2022-08-26T23:36:18.023Z,2.33
2022-08-26T23:38:48.116Z,4.13
2022-08-26T23:41:19.913Z,4.18
2022-08-26T23:43:47.826Z,2.20
2022-08-26T23:46:15.102Z,2.17
2022-08-26T23:48:42.297Z,2.45
2022-08-26T23:51:30.217Z,1.85
2022-08-26T23:53:58.139Z,2.35
2022-08-26T23:56:26.575Z,2.63
2022-08-26T23:58:54.376Z,2.55
